Tampa International Airport
KTPA : now visible

Airfield :











YOU CAN JOIN US ON...

 
LOGIN :

Register | Disclaimer

   EN    FR    IT 

 









Legend :    VFR   Marginal VFR   IFR   Intensive IFR   Very Intensive IFR
Visi :
Ceiling :
>= 8 km
>= 3000ft
5 to 8 km
1000 to 3000 ft
1500m to 5 km
500 to 1000 ft
800 to 1500m
200 to 500 ft
< 800m
< 200 ft
Symbols :   Thunderstorms  Fog  Heavy snow  Heavy precipitations  Wind > 20 kt






- Airport Elevation : 26 ft
- IATA code : TPA


KTPA - Tampa International

CURRENT METAR :
  • 291453Z 08005KT 10SM SCT180 17/06 A2998 RMK AO2 SLP152 T01670061

EXPIRED METARs :
  • 291353Z 06006KT 10SM FEW040 SCT170 14/05 A3001 RMK AO2 SLP161 T01390050 $
  • 291253Z 07003KT 10SM FEW040 12/05 A3001 RMK AO2 SLP160 T01170050 $
  • 291153Z 08008KT 10SM FEW045 11/05 A2998 RMK AO2 SLP152 T01110050 10122 20106 55001 $

TAF KTPA
Valid from the 29 at 12:00 until the 30 at 18:00 UTC


291128Z 2912/3018 08006KT P6SM FEW035
FM291500 12006KT P6SM SCT035 SCT100 BKN250
FM291900 21007KT P6SM VCSH BKN040 OVC100
FM300100 VRB04KT P6SM VCSH SCT020 OVC050
FM300600 VRB03KT P6SM SCT007 OVC025
FM301400 02006KT P6SM FEW015 SCT250



MET'MAP, your aeronautical weather chart ! - Copyright ORBIFLY December 2007 - Disclaimer

ORBIFLY MET'MAP TEAM :

Programming & Development : Alexandra Zaïnal
Concept & original design : Baudouin d'Aumeries
Assistance for programming : Marc-Olivier Méhu
Technical & hardware support : Manuel Goepfert

Contact : metmap@orbifly.com




SOURCES & CREDITS :

   NOAA       Earth
Advisory